sensor_id;sensor_type;location;lat;lon;timestamp;P1;durP1;ratioP1;P2;durP2;ratioP2
45274;SDS011;31019;43.780;25.948;2022-10-19T00:01:23;61.95;;;57.33;;
45274;SDS011;31019;43.780;25.948;2022-10-19T00:03:59;65.22;;;60.53;;
45274;SDS011;31019;43.780;25.948;2022-10-19T00:06:26;59.92;;;55.28;;
45274;SDS011;31019;43.780;25.948;2022-10-19T00:09:07;44.30;;;40.60;;
45274;SDS011;31019;43.780;25.948;2022-10-19T00:11:43;46.55;;;42.65;;
45274;SDS011;31019;43.780;25.948;2022-10-19T00:14:20;46.35;;;42.75;;
45274;SDS011;31019;43.780;25.948;2022-10-19T00:16:52;48.30;;;44.88;;
45274;SDS011;31019;43.780;25.948;2022-10-19T00:19:23;75.88;;;70.80;;
45274;SDS011;31019;43.780;25.948;2022-10-19T00:21:56;83.85;;;78.50;;
45274;SDS011;31019;43.780;25.948;2022-10-19T00:24:24;80.78;;;75.90;;
45274;SDS011;31019;43.780;25.948;2022-10-19T00:26:53;97.15;;;90.88;;
45274;SDS011;31019;43.780;25.948;2022-10-19T00:29:24;92.05;;;85.57;;
45274;SDS011;31019;43.780;25.948;2022-10-19T00:31:51;79.85;;;74.38;;
45274;SDS011;31019;43.780;25.948;2022-10-19T00:34:19;88.57;;;82.97;;
45274;SDS011;31019;43.780;25.948;2022-10-19T00:36:49;84.95;;;79.50;;
45274;SDS011;31019;43.780;25.948;2022-10-19T00:39:19;86.20;;;80.95;;
45274;SDS011;31019;43.780;25.948;2022-10-19T00:41:47;78.85;;;73.95;;
45274;SDS011;31019;43.780;25.948;2022-10-19T00:47:18;88.80;;;83.10;;
45274;SDS011;31019;43.780;25.948;2022-10-19T00:49:49;74.65;;;70.05;;
45274;SDS011;31019;43.780;25.948;2022-10-19T00:52:17;72.30;;;67.80;;
45274;SDS011;31019;43.780;25.948;2022-10-19T00:54:48;66.95;;;62.03;;
45274;SDS011;31019;43.780;25.948;2022-10-19T00:57:19;60.38;;;55.63;;
45274;SDS011;31019;43.780;25.948;2022-10-19T00:59:47;71.93;;;67.45;;
45274;SDS011;31019;43.780;25.948;2022-10-19T01:02:22;48.40;;;45.20;;
45274;SDS011;31019;43.780;25.948;2022-10-19T01:04:49;44.58;;;41.30;;
45274;SDS011;31019;43.780;25.948;2022-10-19T01:07:18;45.75;;;42.13;;
45274;SDS011;31019;43.780;25.948;2022-10-19T01:09:47;42.13;;;38.92;;
45274;SDS011;31019;43.780;25.948;2022-10-19T01:15:31;93.75;;;88.10;;
45274;SDS011;31019;43.780;25.948;2022-10-19T01:18:14;79.38;;;74.60;;
45274;SDS011;31019;43.780;25.948;2022-10-19T01:21:01;72.97;;;68.38;;
45274;SDS011;31019;43.780;25.948;2022-10-19T01:23:45;74.90;;;70.25;;
45274;SDS011;31019;43.780;25.948;2022-10-19T01:26:40;71.68;;;67.20;;
45274;SDS011;31019;43.780;25.948;2022-10-19T01:29:24;68.22;;;63.63;;
45274;SDS011;31019;43.780;25.948;2022-10-19T01:32:07;68.95;;;64.65;;
45274;SDS011;31019;43.780;25.948;2022-10-19T01:34:39;47.17;;;43.88;;
45274;SDS011;31019;43.780;25.948;2022-10-19T01:37:14;46.17;;;42.53;;
45274;SDS011;31019;43.780;25.948;2022-10-19T01:39:45;43.05;;;40.00;;
45274;SDS011;31019;43.780;25.948;2022-10-19T01:42:21;46.55;;;43.35;;
45274;SDS011;31019;43.780;25.948;2022-10-19T01:44:58;46.38;;;43.13;;
45274;SDS011;31019;43.780;25.948;2022-10-19T01:47:34;47.70;;;44.50;;
45274;SDS011;31019;43.780;25.948;2022-10-19T01:50:06;47.08;;;43.88;;
45274;SDS011;31019;43.780;25.948;2022-10-19T01:52:40;43.38;;;40.40;;
45274;SDS011;31019;43.780;25.948;2022-10-19T01:55:10;43.03;;;39.90;;
45274;SDS011;31019;43.780;25.948;2022-10-19T01:57:40;41.80;;;39.08;;
45274;SDS011;31019;43.780;25.948;2022-10-19T02:02:50;40.28;;;37.40;;
45274;SDS011;31019;43.780;25.948;2022-10-19T02:08:16;45.83;;;42.78;;
45274;SDS011;31019;43.780;25.948;2022-10-19T02:10:48;43.65;;;40.70;;
45274;SDS011;31019;43.780;25.948;2022-10-19T02:13:21;49.47;;;46.33;;
45274;SDS011;31019;43.780;25.948;2022-10-19T02:15:50;48.95;;;45.78;;
45274;SDS011;31019;43.780;25.948;2022-10-19T02:18:23;49.70;;;46.47;;
45274;SDS011;31019;43.780;25.948;2022-10-19T02:20:54;50.08;;;46.60;;
45274;SDS011;31019;43.780;25.948;2022-10-19T02:23:24;46.70;;;43.38;;
45274;SDS011;31019;43.780;25.948;2022-10-19T02:25:52;58.47;;;53.70;;
45274;SDS011;31019;43.780;25.948;2022-10-19T02:28:21;57.58;;;52.95;;
45274;SDS011;31019;43.780;25.948;2022-10-19T02:30:49;55.47;;;50.88;;
45274;SDS011;31019;43.780;25.948;2022-10-19T02:33:16;86.32;;;78.00;;
45274;SDS011;31019;43.780;25.948;2022-10-19T02:35:44;76.03;;;68.50;;
45274;SDS011;31019;43.780;25.948;2022-10-19T02:38:13;67.75;;;61.53;;
45274;SDS011;31019;43.780;25.948;2022-10-19T02:40:47;64.80;;;58.67;;
45274;SDS011;31019;43.780;25.948;2022-10-19T02:43:19;65.38;;;58.40;;
45274;SDS011;31019;43.780;25.948;2022-10-19T02:45:50;62.92;;;56.90;;
45274;SDS011;31019;43.780;25.948;2022-10-19T02:48:22;66.10;;;57.88;;
45274;SDS011;31019;43.780;25.948;2022-10-19T02:50:52;63.10;;;56.28;;
45274;SDS011;31019;43.780;25.948;2022-10-19T02:53:19;57.80;;;52.10;;
45274;SDS011;31019;43.780;25.948;2022-10-19T02:55:46;55.20;;;49.28;;
45274;SDS011;31019;43.780;25.948;2022-10-19T02:58:14;64.75;;;55.15;;
45274;SDS011;31019;43.780;25.948;2022-10-19T03:00:41;69.97;;;57.53;;
45274;SDS011;31019;43.780;25.948;2022-10-19T03:03:08;74.30;;;59.17;;
45274;SDS011;31019;43.780;25.948;2022-10-19T03:05:35;77.03;;;58.40;;
45274;SDS011;31019;43.780;25.948;2022-10-19T03:08:03;85.30;;;63.72;;
45274;SDS011;31019;43.780;25.948;2022-10-19T03:10:30;69.22;;;56.05;;
45274;SDS011;31019;43.780;25.948;2022-10-19T03:12:59;67.00;;;55.55;;
45274;SDS011;31019;43.780;25.948;2022-10-19T03:15:26;68.45;;;54.67;;
45274;SDS011;31019;43.780;25.948;2022-10-19T03:20:23;50.83;;;46.08;;
45274;SDS011;31019;43.780;25.948;2022-10-19T03:22:50;55.78;;;50.08;;
45274;SDS011;31019;43.780;25.948;2022-10-19T03:25:18;50.60;;;45.47;;
45274;SDS011;31019;43.780;25.948;2022-10-19T03:27:45;48.47;;;44.03;;
45274;SDS011;31019;43.780;25.948;2022-10-19T03:30:11;47.38;;;43.33;;
45274;SDS011;31019;43.780;25.948;2022-10-19T03:32:38;59.05;;;54.20;;
45274;SDS011;31019;43.780;25.948;2022-10-19T03:35:06;56.58;;;51.47;;
45274;SDS011;31019;43.780;25.948;2022-10-19T03:37:33;60.38;;;54.78;;
45274;SDS011;31019;43.780;25.948;2022-10-19T03:40:00;58.10;;;53.17;;
45274;SDS011;31019;43.780;25.948;2022-10-19T03:42:28;58.78;;;53.38;;
45274;SDS011;31019;43.780;25.948;2022-10-19T03:44:55;54.28;;;49.45;;
45274;SDS011;31019;43.780;25.948;2022-10-19T03:47:22;54.88;;;50.38;;
45274;SDS011;31019;43.780;25.948;2022-10-19T03:49:49;56.03;;;51.30;;
45274;SDS011;31019;43.780;25.948;2022-10-19T03:52:16;85.53;;;78.22;;
45274;SDS011;31019;43.780;25.948;2022-10-19T03:54:43;76.63;;;70.07;;
45274;SDS011;31019;43.780;25.948;2022-10-19T03:57:10;82.13;;;74.82;;
45274;SDS011;31019;43.780;25.948;2022-10-19T03:59:39;82.72;;;75.25;;
45274;SDS011;31019;43.780;25.948;2022-10-19T04:02:06;77.95;;;70.88;;
45274;SDS011;31019;43.780;25.948;2022-10-19T04:04:32;53.85;;;49.78;;
45274;SDS011;31019;43.780;25.948;2022-10-19T04:06:59;51.08;;;47.08;;
45274;SDS011;31019;43.780;25.948;2022-10-19T04:09:26;52.58;;;48.05;;
45274;SDS011;31019;43.780;25.948;2022-10-19T04:11:53;48.83;;;45.13;;
45274;SDS011;31019;43.780;25.948;2022-10-19T04:14:20;49.13;;;44.92;;
45274;SDS011;31019;43.780;25.948;2022-10-19T04:16:48;51.65;;;47.50;;
45274;SDS011;31019;43.780;25.948;2022-10-19T04:19:15;50.83;;;46.83;;
45274;SDS011;31019;43.780;25.948;2022-10-19T04:21:42;49.60;;;45.63;;
45274;SDS011;31019;43.780;25.948;2022-10-19T04:24:10;54.42;;;50.38;;
45274;SDS011;31019;43.780;25.948;2022-10-19T04:26:39;50.65;;;46.42;;
45274;SDS011;31019;43.780;25.948;2022-10-19T04:29:08;48.42;;;44.92;;
45274;SDS011;31019;43.780;25.948;2022-10-19T04:31:36;43.42;;;39.92;;
45274;SDS011;31019;43.780;25.948;2022-10-19T04:34:05;46.40;;;42.70;;
45274;SDS011;31019;43.780;25.948;2022-10-19T04:36:32;47.10;;;42.60;;
45274;SDS011;31019;43.780;25.948;2022-10-19T04:38:59;45.25;;;41.40;;
45274;SDS011;31019;43.780;25.948;2022-10-19T04:41:28;50.22;;;45.78;;
45274;SDS011;31019;43.780;25.948;2022-10-19T04:44:02;46.08;;;41.88;;
45274;SDS011;31019;43.780;25.948;2022-10-19T04:46:32;43.50;;;39.63;;
45274;SDS011;31019;43.780;25.948;2022-10-19T04:51:32;48.40;;;43.50;;
45274;SDS011;31019;43.780;25.948;2022-10-19T04:54:00;47.88;;;44.00;;
45274;SDS011;31019;43.780;25.948;2022-10-19T04:58:59;44.75;;;39.92;;
45274;SDS011;31019;43.780;25.948;2022-10-19T05:01:27;45.35;;;41.35;;
45274;SDS011;31019;43.780;25.948;2022-10-19T05:03:56;46.40;;;42.33;;
45274;SDS011;31019;43.780;25.948;2022-10-19T05:06:24;47.35;;;43.47;;
45274;SDS011;31019;43.780;25.948;2022-10-19T05:08:53;48.00;;;43.58;;
45274;SDS011;31019;43.780;25.948;2022-10-19T05:11:22;52.17;;;47.88;;
45274;SDS011;31019;43.780;25.948;2022-10-19T05:13:50;58.33;;;53.22;;
45274;SDS011;31019;43.780;25.948;2022-10-19T05:16:18;55.88;;;50.55;;
45274;SDS011;31019;43.780;25.948;2022-10-19T05:18:49;56.55;;;51.55;;
45274;SDS011;31019;43.780;25.948;2022-10-19T05:21:20;63.27;;;56.70;;
45274;SDS011;31019;43.780;25.948;2022-10-19T05:23:49;74.85;;;67.60;;
45274;SDS011;31019;43.780;25.948;2022-10-19T05:26:19;71.28;;;64.88;;
45274;SDS011;31019;43.780;25.948;2022-10-19T05:28:47;55.65;;;51.05;;
45274;SDS011;31019;43.780;25.948;2022-10-19T05:31:17;52.45;;;48.28;;
45274;SDS011;31019;43.780;25.948;2022-10-19T05:33:46;51.95;;;47.65;;
45274;SDS011;31019;43.780;25.948;2022-10-19T05:36:17;50.83;;;46.85;;
45274;SDS011;31019;43.780;25.948;2022-10-19T05:38:48;45.63;;;41.75;;
45274;SDS011;31019;43.780;25.948;2022-10-19T05:41:19;55.00;;;50.55;;
45274;SDS011;31019;43.780;25.948;2022-10-19T05:43:50;52.17;;;48.30;;
45274;SDS011;31019;43.780;25.948;2022-10-19T05:46:18;46.92;;;42.65;;
45274;SDS011;31019;43.780;25.948;2022-10-19T05:48:45;51.30;;;46.95;;
45274;SDS011;31019;43.780;25.948;2022-10-19T05:51:13;50.67;;;46.55;;
45274;SDS011;31019;43.780;25.948;2022-10-19T05:53:42;54.33;;;50.42;;
45274;SDS011;31019;43.780;25.948;2022-10-19T05:56:12;53.15;;;49.25;;
45274;SDS011;31019;43.780;25.948;2022-10-19T05:58:43;58.55;;;53.38;;
45274;SDS011;31019;43.780;25.948;2022-10-19T06:01:10;58.13;;;53.50;;
45274;SDS011;31019;43.780;25.948;2022-10-19T06:03:38;55.20;;;51.08;;
45274;SDS011;31019;43.780;25.948;2022-10-19T06:06:05;55.13;;;50.63;;
45274;SDS011;31019;43.780;25.948;2022-10-19T06:08:34;57.78;;;53.00;;
45274;SDS011;31019;43.780;25.948;2022-10-19T06:11:05;52.55;;;48.05;;
45274;SDS011;31019;43.780;25.948;2022-10-19T06:13:33;50.65;;;46.03;;
45274;SDS011;31019;43.780;25.948;2022-10-19T06:16:01;54.17;;;49.00;;
45274;SDS011;31019;43.780;25.948;2022-10-19T06:18:30;52.47;;;48.17;;
45274;SDS011;31019;43.780;25.948;2022-10-19T06:20:59;51.38;;;47.38;;
45274;SDS011;31019;43.780;25.948;2022-10-19T06:23:28;49.80;;;45.25;;
45274;SDS011;31019;43.780;25.948;2022-10-19T06:25:55;50.25;;;46.40;;
45274;SDS011;31019;43.780;25.948;2022-10-19T06:28:21;48.92;;;45.08;;
45274;SDS011;31019;43.780;25.948;2022-10-19T06:30:48;48.67;;;45.10;;
45274;SDS011;31019;43.780;25.948;2022-10-19T06:33:17;46.83;;;43.13;;
45274;SDS011;31019;43.780;25.948;2022-10-19T06:35:44;48.35;;;44.97;;
45274;SDS011;31019;43.780;25.948;2022-10-19T06:38:11;49.63;;;46.20;;
45274;SDS011;31019;43.780;25.948;2022-10-19T06:40:38;49.20;;;45.53;;
45274;SDS011;31019;43.780;25.948;2022-10-19T06:43:05;49.08;;;44.28;;
45274;SDS011;31019;43.780;25.948;2022-10-19T06:45:32;47.53;;;43.30;;
45274;SDS011;31019;43.780;25.948;2022-10-19T06:48:00;46.88;;;43.08;;
45274;SDS011;31019;43.780;25.948;2022-10-19T06:50:30;61.55;;;48.08;;
45274;SDS011;31019;43.780;25.948;2022-10-19T06:52:57;47.85;;;44.15;;
45274;SDS011;31019;43.780;25.948;2022-10-19T06:55:24;48.53;;;44.58;;
45274;SDS011;31019;43.780;25.948;2022-10-19T06:57:51;47.08;;;43.38;;
45274;SDS011;31019;43.780;25.948;2022-10-19T07:00:18;44.65;;;41.45;;
45274;SDS011;31019;43.780;25.948;2022-10-19T07:02:45;47.45;;;43.97;;
45274;SDS011;31019;43.780;25.948;2022-10-19T07:05:12;46.75;;;43.22;;
45274;SDS011;31019;43.780;25.948;2022-10-19T07:07:40;47.28;;;43.40;;
45274;SDS011;31019;43.780;25.948;2022-10-19T07:10:08;51.47;;;46.15;;
45274;SDS011;31019;43.780;25.948;2022-10-19T07:12:35;48.63;;;44.85;;
45274;SDS011;31019;43.780;25.948;2022-10-19T07:15:02;49.95;;;45.28;;
45274;SDS011;31019;43.780;25.948;2022-10-19T07:17:29;51.47;;;47.60;;
45274;SDS011;31019;43.780;25.948;2022-10-19T07:19:56;48.03;;;44.78;;
45274;SDS011;31019;43.780;25.948;2022-10-19T07:22:24;50.17;;;46.97;;
45274;SDS011;31019;43.780;25.948;2022-10-19T07:24:52;50.60;;;47.30;;
45274;SDS011;31019;43.780;25.948;2022-10-19T07:27:19;51.22;;;48.15;;
45274;SDS011;31019;43.780;25.948;2022-10-19T07:29:47;45.45;;;42.35;;
45274;SDS011;31019;43.780;25.948;2022-10-19T07:32:14;46.53;;;43.50;;
45274;SDS011;31019;43.780;25.948;2022-10-19T07:34:41;45.72;;;42.83;;
45274;SDS011;31019;43.780;25.948;2022-10-19T07:37:09;44.90;;;41.97;;
45274;SDS011;31019;43.780;25.948;2022-10-19T07:39:39;44.65;;;41.55;;
45274;SDS011;31019;43.780;25.948;2022-10-19T07:42:08;44.83;;;41.85;;
45274;SDS011;31019;43.780;25.948;2022-10-19T07:44:35;43.58;;;40.90;;
45274;SDS011;31019;43.780;25.948;2022-10-19T07:47:02;44.70;;;41.60;;
45274;SDS011;31019;43.780;25.948;2022-10-19T07:49:30;42.80;;;39.95;;
45274;SDS011;31019;43.780;25.948;2022-10-19T07:51:57;44.45;;;41.28;;
45274;SDS011;31019;43.780;25.948;2022-10-19T07:54:23;43.92;;;41.33;;
45274;SDS011;31019;43.780;25.948;2022-10-19T07:56:51;43.20;;;40.53;;
45274;SDS011;31019;43.780;25.948;2022-10-19T07:59:19;44.58;;;41.70;;
45274;SDS011;31019;43.780;25.948;2022-10-19T08:01:47;44.30;;;41.50;;
45274;SDS011;31019;43.780;25.948;2022-10-19T08:04:15;44.75;;;41.85;;
45274;SDS011;31019;43.780;25.948;2022-10-19T08:06:43;46.60;;;43.70;;
45274;SDS011;31019;43.780;25.948;2022-10-19T08:09:10;47.33;;;44.38;;
45274;SDS011;31019;43.780;25.948;2022-10-19T08:11:37;46.78;;;43.67;;
45274;SDS011;31019;43.780;25.948;2022-10-19T08:14:04;45.47;;;42.80;;
45274;SDS011;31019;43.780;25.948;2022-10-19T08:16:32;47.17;;;43.95;;
45274;SDS011;31019;43.780;25.948;2022-10-19T08:19:04;46.17;;;43.33;;
45274;SDS011;31019;43.780;25.948;2022-10-19T08:21:32;44.65;;;41.75;;
45274;SDS011;31019;43.780;25.948;2022-10-19T08:24:00;47.08;;;44.25;;
45274;SDS011;31019;43.780;25.948;2022-10-19T08:26:27;45.72;;;43.03;;
45274;SDS011;31019;43.780;25.948;2022-10-19T08:28:59;46.78;;;44.17;;
45274;SDS011;31019;43.780;25.948;2022-10-19T08:31:27;50.15;;;47.25;;
45274;SDS011;31019;43.780;25.948;2022-10-19T08:33:56;45.75;;;42.80;;
45274;SDS011;31019;43.780;25.948;2022-10-19T08:36:23;44.13;;;41.40;;
45274;SDS011;31019;43.780;25.948;2022-10-19T08:38:50;44.60;;;41.55;;
45274;SDS011;31019;43.780;25.948;2022-10-19T08:41:20;46.45;;;43.47;;
45274;SDS011;31019;43.780;25.948;2022-10-19T08:43:58;44.50;;;41.97;;
45274;SDS011;31019;43.780;25.948;2022-10-19T08:46:40;46.25;;;43.33;;
45274;SDS011;31019;43.780;25.948;2022-10-19T08:49:20;47.90;;;45.03;;
45274;SDS011;31019;43.780;25.948;2022-10-19T08:51:52;47.38;;;44.47;;
45274;SDS011;31019;43.780;25.948;2022-10-19T08:54:24;46.20;;;43.58;;
45274;SDS011;31019;43.780;25.948;2022-10-19T08:56:59;45.85;;;42.80;;
45274;SDS011;31019;43.780;25.948;2022-10-19T08:59:35;46.20;;;43.20;;
45274;SDS011;31019;43.780;25.948;2022-10-19T09:02:09;45.97;;;43.28;;
45274;SDS011;31019;43.780;25.948;2022-10-19T09:04:43;46.05;;;42.85;;
45274;SDS011;31019;43.780;25.948;2022-10-19T09:07:24;47.38;;;44.20;;
45274;SDS011;31019;43.780;25.948;2022-10-19T09:09:54;47.28;;;44.47;;
45274;SDS011;31019;43.780;25.948;2022-10-19T09:12:28;48.03;;;44.80;;
45274;SDS011;31019;43.780;25.948;2022-10-19T09:15:01;46.00;;;43.25;;
45274;SDS011;31019;43.780;25.948;2022-10-19T09:17:30;45.42;;;42.92;;
45274;SDS011;31019;43.780;25.948;2022-10-19T09:19:59;48.60;;;45.50;;
45274;SDS011;31019;43.780;25.948;2022-10-19T09:22:38;46.67;;;43.53;;
45274;SDS011;31019;43.780;25.948;2022-10-19T09:25:10;46.58;;;43.80;;
45274;SDS011;31019;43.780;25.948;2022-10-19T09:27:40;48.63;;;45.47;;
45274;SDS011;31019;43.780;25.948;2022-10-19T09:30:14;48.42;;;45.15;;
45274;SDS011;31019;43.780;25.948;2022-10-19T09:32:44;48.80;;;45.63;;
45274;SDS011;31019;43.780;25.948;2022-10-19T09:35:19;49.70;;;46.15;;
45274;SDS011;31019;43.780;25.948;2022-10-19T09:37:51;49.25;;;46.08;;
45274;SDS011;31019;43.780;25.948;2022-10-19T09:40:23;47.53;;;44.60;;
45274;SDS011;31019;43.780;25.948;2022-10-19T09:42:51;49.55;;;46.45;;
45274;SDS011;31019;43.780;25.948;2022-10-19T09:45:28;48.33;;;45.10;;
45274;SDS011;31019;43.780;25.948;2022-10-19T09:48:02;47.17;;;44.17;;
45274;SDS011;31019;43.780;25.948;2022-10-19T09:50:42;47.30;;;44.25;;
45274;SDS011;31019;43.780;25.948;2022-10-19T09:53:14;48.38;;;45.13;;
45274;SDS011;31019;43.780;25.948;2022-10-19T09:55:44;49.10;;;46.08;;
45274;SDS011;31019;43.780;25.948;2022-10-19T09:58:18;48.58;;;45.50;;
45274;SDS011;31019;43.780;25.948;2022-10-19T10:01:00;47.58;;;44.20;;
45274;SDS011;31019;43.780;25.948;2022-10-19T10:06:15;49.58;;;46.08;;
45274;SDS011;31019;43.780;25.948;2022-10-19T10:08:45;48.22;;;45.22;;
45274;SDS011;31019;43.780;25.948;2022-10-19T10:11:26;47.53;;;44.42;;
45274;SDS011;31019;43.780;25.948;2022-10-19T10:13:56;48.25;;;44.78;;
45274;SDS011;31019;43.780;25.948;2022-10-19T10:16:32;50.00;;;46.53;;
45274;SDS011;31019;43.780;25.948;2022-10-19T10:19:07;48.35;;;45.13;;
45274;SDS011;31019;43.780;25.948;2022-10-19T10:21:47;48.03;;;44.97;;
45274;SDS011;31019;43.780;25.948;2022-10-19T10:24:17;49.90;;;46.58;;
45274;SDS011;31019;43.780;25.948;2022-10-19T10:26:48;49.15;;;46.05;;
45274;SDS011;31019;43.780;25.948;2022-10-19T10:29:19;48.90;;;45.42;;
45274;SDS011;31019;43.780;25.948;2022-10-19T10:31:54;48.28;;;44.83;;
45274;SDS011;31019;43.780;25.948;2022-10-19T10:34:34;48.75;;;45.70;;
45274;SDS011;31019;43.780;25.948;2022-10-19T10:37:06;49.55;;;45.92;;
45274;SDS011;31019;43.780;25.948;2022-10-19T10:39:39;49.53;;;46.22;;
45274;SDS011;31019;43.780;25.948;2022-10-19T10:42:15;50.60;;;47.03;;
45274;SDS011;31019;43.780;25.948;2022-10-19T10:44:53;53.30;;;49.03;;
45274;SDS011;31019;43.780;25.948;2022-10-19T10:49:57;49.08;;;45.78;;
45274;SDS011;31019;43.780;25.948;2022-10-19T10:52:34;48.40;;;44.70;;
45274;SDS011;31019;43.780;25.948;2022-10-19T10:55:14;48.85;;;45.55;;
45274;SDS011;31019;43.780;25.948;2022-10-19T10:58:05;48.33;;;45.10;;
45274;SDS011;31019;43.780;25.948;2022-10-19T11:00:43;49.05;;;45.50;;
45274;SDS011;31019;43.780;25.948;2022-10-19T11:03:15;49.97;;;46.83;;
45274;SDS011;31019;43.780;25.948;2022-10-19T11:05:50;49.83;;;46.75;;
45274;SDS011;31019;43.780;25.948;2022-10-19T11:11:10;46.88;;;43.75;;
45274;SDS011;31019;43.780;25.948;2022-10-19T11:13:50;47.58;;;44.47;;
45274;SDS011;31019;43.780;25.948;2022-10-19T11:16:27;50.58;;;46.55;;
45274;SDS011;31019;43.780;25.948;2022-10-19T11:18:59;52.92;;;49.40;;
45274;SDS011;31019;43.780;25.948;2022-10-19T11:21:36;53.60;;;50.35;;
45274;SDS011;31019;43.780;25.948;2022-10-19T11:24:14;59.63;;;55.95;;
45274;SDS011;31019;43.780;25.948;2022-10-19T11:26:55;58.22;;;54.33;;
45274;SDS011;31019;43.780;25.948;2022-10-19T11:29:40;53.40;;;50.38;;
45274;SDS011;31019;43.780;25.948;2022-10-19T11:32:30;57.25;;;53.95;;
45274;SDS011;31019;43.780;25.948;2022-10-19T11:38:06;55.78;;;52.22;;
45274;SDS011;31019;43.780;25.948;2022-10-19T11:40:53;55.53;;;51.83;;
45274;SDS011;31019;43.780;25.948;2022-10-19T11:43:37;55.08;;;51.67;;
45274;SDS011;31019;43.780;25.948;2022-10-19T11:46:09;67.18;;;63.15;;
45274;SDS011;31019;43.780;25.948;2022-10-19T11:48:55;56.42;;;53.33;;
45274;SDS011;31019;43.780;25.948;2022-10-19T11:51:37;55.25;;;51.63;;
45274;SDS011;31019;43.780;25.948;2022-10-19T11:57:02;62.28;;;58.47;;
45274;SDS011;31019;43.780;25.948;2022-10-19T11:59:39;58.67;;;55.28;;
45274;SDS011;31019;43.780;25.948;2022-10-19T12:02:29;55.55;;;52.20;;
45274;SDS011;31019;43.780;25.948;2022-10-19T12:05:17;60.67;;;56.72;;
45274;SDS011;31019;43.780;25.948;2022-10-19T12:07:55;67.18;;;62.70;;
45274;SDS011;31019;43.780;25.948;2022-10-19T12:10:33;57.17;;;52.92;;
45274;SDS011;31019;43.780;25.948;2022-10-19T12:13:15;73.07;;;67.13;;
45274;SDS011;31019;43.780;25.948;2022-10-19T12:15:47;72.00;;;66.45;;
45274;SDS011;31019;43.780;25.948;2022-10-19T12:18:20;60.83;;;55.75;;
45274;SDS011;31019;43.780;25.948;2022-10-19T12:20:53;60.80;;;56.53;;
45274;SDS011;31019;43.780;25.948;2022-10-19T12:23:25;56.15;;;52.15;;
45274;SDS011;31019;43.780;25.948;2022-10-19T12:25:57;64.55;;;59.95;;
45274;SDS011;31019;43.780;25.948;2022-10-19T12:28:29;56.22;;;52.80;;
45274;SDS011;31019;43.780;25.948;2022-10-19T12:31:01;51.67;;;48.08;;
45274;SDS011;31019;43.780;25.948;2022-10-19T12:33:37;53.45;;;50.22;;
45274;SDS011;31019;43.780;25.948;2022-10-19T12:39:02;52.80;;;49.40;;
45274;SDS011;31019;43.780;25.948;2022-10-19T12:41:42;54.45;;;50.67;;
45274;SDS011;31019;43.780;25.948;2022-10-19T12:44:18;57.67;;;53.47;;
45274;SDS011;31019;43.780;25.948;2022-10-19T12:46:57;60.67;;;55.88;;
45274;SDS011;31019;43.780;25.948;2022-10-19T12:49:44;50.50;;;46.53;;
45274;SDS011;31019;43.780;25.948;2022-10-19T12:52:15;50.28;;;46.55;;
45274;SDS011;31019;43.780;25.948;2022-10-19T12:55:09;56.72;;;52.40;;
45274;SDS011;31019;43.780;25.948;2022-10-19T12:57:38;53.97;;;49.53;;
45274;SDS011;31019;43.780;25.948;2022-10-19T13:00:22;49.47;;;45.97;;
45274;SDS011;31019;43.780;25.948;2022-10-19T13:02:55;50.50;;;46.58;;
45274;SDS011;31019;43.780;25.948;2022-10-19T13:05:25;50.60;;;46.38;;
45274;SDS011;31019;43.780;25.948;2022-10-19T13:07:55;47.88;;;44.40;;
45274;SDS011;31019;43.780;25.948;2022-10-19T13:10:23;50.60;;;46.53;;
45274;SDS011;31019;43.780;25.948;2022-10-19T13:12:55;44.80;;;41.20;;
45274;SDS011;31019;43.780;25.948;2022-10-19T13:21:10;48.25;;;44.78;;
45274;SDS011;31019;43.780;25.948;2022-10-19T13:23:39;45.10;;;41.55;;
45274;SDS011;31019;43.780;25.948;2022-10-19T13:26:29;45.50;;;41.63;;
45274;SDS011;31019;43.780;25.948;2022-10-19T13:28:59;45.33;;;42.22;;
45274;SDS011;31019;43.780;25.948;2022-10-19T13:31:28;53.58;;;49.60;;
45274;SDS011;31019;43.780;25.948;2022-10-19T13:33:57;51.70;;;48.35;;
45274;SDS011;31019;43.780;25.948;2022-10-19T13:36:25;55.10;;;51.47;;
45274;SDS011;31019;43.780;25.948;2022-10-19T13:39:03;52.70;;;49.00;;
45274;SDS011;31019;43.780;25.948;2022-10-19T13:41:45;42.92;;;40.03;;
45274;SDS011;31019;43.780;25.948;2022-10-19T13:44:18;40.45;;;37.72;;
45274;SDS011;31019;43.780;25.948;2022-10-19T13:50:13;50.95;;;47.25;;
45274;SDS011;31019;43.780;25.948;2022-10-19T13:56:00;58.33;;;54.50;;
45274;SDS011;31019;43.780;25.948;2022-10-19T14:01:54;46.75;;;43.85;;
45274;SDS011;31019;43.780;25.948;2022-10-19T14:04:40;42.78;;;39.75;;
45274;SDS011;31019;43.780;25.948;2022-10-19T14:07:19;45.93;;;42.57;;
45274;SDS011;31019;43.780;25.948;2022-10-19T14:10:01;43.92;;;40.72;;
45274;SDS011;31019;43.780;25.948;2022-10-19T14:12:38;41.25;;;37.58;;
45274;SDS011;31019;43.780;25.948;2022-10-19T14:15:14;37.70;;;35.15;;
45274;SDS011;31019;43.780;25.948;2022-10-19T14:17:49;37.15;;;34.55;;
45274;SDS011;31019;43.780;25.948;2022-10-19T14:20:27;37.40;;;35.00;;
45274;SDS011;31019;43.780;25.948;2022-10-19T14:23:00;36.45;;;33.88;;
45274;SDS011;31019;43.780;25.948;2022-10-19T14:25:49;38.25;;;35.65;;
45274;SDS011;31019;43.780;25.948;2022-10-19T14:28:17;39.55;;;36.70;;
45274;SDS011;31019;43.780;25.948;2022-10-19T14:30:45;37.70;;;35.10;;
45274;SDS011;31019;43.780;25.948;2022-10-19T14:33:20;38.08;;;35.15;;
45274;SDS011;31019;43.780;25.948;2022-10-19T14:35:49;38.70;;;36.00;;
45274;SDS011;31019;43.780;25.948;2022-10-19T14:38:19;39.63;;;35.88;;
45274;SDS011;31019;43.780;25.948;2022-10-19T14:41:05;45.13;;;41.30;;
45274;SDS011;31019;43.780;25.948;2022-10-19T14:44:01;38.75;;;35.55;;
45274;SDS011;31019;43.780;25.948;2022-10-19T14:47:01;37.45;;;34.50;;
45274;SDS011;31019;43.780;25.948;2022-10-19T14:49:37;39.13;;;35.60;;
45274;SDS011;31019;43.780;25.948;2022-10-19T14:52:04;39.65;;;35.63;;
45274;SDS011;31019;43.780;25.948;2022-10-19T14:54:37;38.28;;;34.60;;
45274;SDS011;31019;43.780;25.948;2022-10-19T14:57:11;38.70;;;35.60;;
45274;SDS011;31019;43.780;25.948;2022-10-19T14:59:51;39.78;;;35.80;;
45274;SDS011;31019;43.780;25.948;2022-10-19T15:02:35;41.50;;;37.13;;
45274;SDS011;31019;43.780;25.948;2022-10-19T15:05:05;46.10;;;40.67;;
45274;SDS011;31019;43.780;25.948;2022-10-19T15:07:44;44.00;;;40.20;;
45274;SDS011;31019;43.780;25.948;2022-10-19T15:10:37;45.45;;;40.38;;
45274;SDS011;31019;43.780;25.948;2022-10-19T15:13:21;53.17;;;41.80;;
45274;SDS011;31019;43.780;25.948;2022-10-19T15:15:56;44.75;;;41.22;;
45274;SDS011;31019;43.780;25.948;2022-10-19T15:18:32;44.85;;;41.15;;
45274;SDS011;31019;43.780;25.948;2022-10-19T15:21:02;46.90;;;43.13;;
45274;SDS011;31019;43.780;25.948;2022-10-19T15:23:43;46.15;;;41.72;;
45274;SDS011;31019;43.780;25.948;2022-10-19T15:26:20;42.95;;;39.47;;
45274;SDS011;31019;43.780;25.948;2022-10-19T15:29:05;44.20;;;40.42;;